Time;durP1;ratioP1;P1;durP2;ratioP2;P2;SDS_P1;SDS_P2;PMS_P1;PMS_P2;Temp;Humidity;BMP_temperature;BMP_pressure;BME280_temperature;BME280_humidity;BME280_pressure;Samples;Min_cycle;Max_cycle;Signal;HPM_P1;HPM_P2
2022/06/16 00:01:45;;;;;;;4.90;3.40;;;18.00;99.90;;;;;;4796508;29;20222;-94
2022/06/16 00:04:18;;;;;;;4.27;3.27;;;17.80;99.90;;;;;;4797091;29;20210;-95
2022/06/16 00:06:50;;;;;;;5.30;2.93;;;17.60;99.90;;;;;;4797041;29;20229;-95
2022/06/16 00:09:21;;;;;;;3.93;2.97;;;17.60;99.90;;;;;;4797454;29;20209;-93
2022/06/16 00:11:54;;;;;;;3.77;3.13;;;17.60;99.90;;;;;;4946231;24;20254;-95
2022/06/16 00:14:27;;;;;;;4.63;3.50;;;17.70;99.90;;;;;;4871007;29;20218;-94
2022/06/16 00:16:58;;;;;;;5.40;3.07;;;17.60;99.90;;;;;;4867379;29;20246;-93
2022/06/16 00:19:32;;;;;;;4.43;3.63;;;17.70;99.90;;;;;;4867888;29;20223;-93
2022/06/16 00:22:02;;;;;;;5.30;3.27;;;17.80;99.90;;;;;;4860766;29;20218;-94
2022/06/16 00:24:33;;;;;;;5.47;3.43;;;17.80;99.90;;;;;;4847272;29;20211;-94
2022/06/16 00:27:05;;;;;;;5.63;3.20;;;17.70;99.90;;;;;;4861752;29;20265;-93
2022/06/16 00:29:36;;;;;;;5.13;3.33;;;17.90;99.90;;;;;;4874849;29;20215;-92
2022/06/16 00:32:08;;;;;;;5.47;3.07;;;17.70;99.90;;;;;;4871538;29;20559;-94
2022/06/16 00:34:43;;;;;;;4.73;3.43;;;17.70;99.90;;;;;;4876701;29;20287;-93
2022/06/16 00:37:14;;;;;;;5.63;3.40;;;17.60;99.90;;;;;;4869831;29;20227;-93
2022/06/16 00:39:47;;;;;;;5.63;3.10;;;17.40;99.90;;;;;;4868278;29;20257;-92
2022/06/16 00:42:19;;;;;;;5.53;3.10;;;17.40;99.90;;;;;;4879269;29;20215;-92
2022/06/16 00:45:02;;;;;;;4.07;3.20;;;17.40;99.90;;;;;;4870023;29;20243;-94
2022/06/16 00:47:43;;;;;;;8.80;3.37;;;17.40;99.90;;;;;;4884244;29;20205;-93
2022/06/16 00:50:17;;;;;;;4.77;3.60;;;17.40;99.90;;;;;;4871840;29;20217;-93
2022/06/16 00:52:49;;;;;;;5.50;3.40;;;17.50;99.90;;;;;;4871772;29;20213;-93
2022/06/16 00:55:20;;;;;;;5.87;3.37;;;17.60;99.90;;;;;;4868245;29;20214;-94
2022/06/16 00:57:52;;;;;;;4.30;3.30;;;17.60;99.90;;;;;;4874677;29;20199;-92
2022/06/16 01:00:25;;;;;;;5.13;3.53;;;17.70;99.90;;;;;;4875463;29;20297;-94
2022/06/16 01:02:57;;;;;;;4.07;3.40;;;17.90;99.90;;;;;;4882405;29;20242;-94
2022/06/16 01:05:33;;;;;;;6.37;3.37;;;17.80;99.90;;;;;;4881562;29;20215;-93
2022/06/16 01:08:06;;;;;;;5.30;3.47;;;17.70;99.90;;;;;;4873859;29;20223;-95
2022/06/16 01:10:49;;;;;;;9.23;3.37;;;17.60;99.90;;;;;;4881584;29;20211;-95
2022/06/16 01:13:41;;;;;;;5.10;3.33;;;17.50;99.90;;;;;;4863370;29;20216;-94
2022/06/16 01:16:25;;;;;;;6.87;3.70;;;17.40;99.90;;;;;;4877074;29;20306;-95
2022/06/16 01:19:04;;;;;;;5.93;3.40;;;17.30;99.90;;;;;;4879096;29;20246;-95
2022/06/16 01:21:43;;;;;;;6.70;3.73;;;17.20;99.90;;;;;;4880251;29;20205;-94
2022/06/16 01:24:44;;;;;;;6.57;3.60;;;17.30;99.90;;;;;;4876757;29;20301;-92
2022/06/16 01:28:03;;;;;;;6.73;3.07;;;17.30;99.90;;;;;;4867808;29;20219;-94
2022/06/16 01:30:41;;;;;;;5.13;3.30;;;17.20;99.90;;;;;;4864903;29;20235;-94
2022/06/16 01:33:20;;;;;;;6.63;3.73;;;17.30;99.90;;;;;;4853085;29;20293;-94
2022/06/16 01:35:58;;;;;;;4.17;3.10;;;17.20;99.90;;;;;;4849453;29;20222;-94
2022/06/16 01:38:36;;;;;;;7.77;3.70;;;17.30;99.90;;;;;;4854225;29;20624;-94
2022/06/16 01:41:18;;;;;;;5.70;3.70;;;17.20;99.90;;;;;;4858498;29;20327;-94
2022/06/16 01:43:57;;;;;;;6.07;3.50;;;17.20;99.90;;;;;;4848616;29;20223;-93
2022/06/16 01:46:34;;;;;;;4.10;3.17;;;17.20;99.90;;;;;;4861968;29;20238;-94
2022/06/16 01:49:08;;;;;;;5.80;3.07;;;17.30;99.90;;;;;;4876900;29;20236;-94
2022/06/16 01:51:43;;;;;;;4.63;3.47;;;17.20;99.90;;;;;;4879253;29;20207;-93
2022/06/16 01:54:27;;;;;;;4.90;3.50;;;17.20;99.90;;;;;;4876194;29;20222;-94
2022/06/16 01:57:03;;;;;;;5.10;3.67;;;17.30;99.90;;;;;;4870081;29;20230;-94
2022/06/16 01:59:46;;;;;;;8.70;3.50;;;17.20;99.90;;;;;;4871174;29;20215;-94
2022/06/16 02:02:23;;;;;;;4.67;3.40;;;17.20;99.90;;;;;;4874261;29;20290;-94
2022/06/16 02:05:01;;;;;;;7.13;3.47;;;17.10;99.90;;;;;;4879970;29;20254;-94
2022/06/16 02:07:37;;;;;;;7.13;3.83;;;16.80;99.90;;;;;;4867079;29;20213;-94
2022/06/16 02:10:12;;;;;;;5.30;3.77;;;16.70;99.90;;;;;;4867761;29;20271;-94
2022/06/16 02:12:58;;;;;;;5.03;3.73;;;16.60;99.90;;;;;;4864242;29;20293;-93
2022/06/16 02:15:53;;;;;;;6.70;4.20;;;16.50;99.90;;;;;;4869203;29;20382;-94
2022/06/16 02:18:30;;;;;;;5.77;3.33;;;16.50;99.90;;;;;;4856895;29;20208;-94
2022/06/16 02:21:09;;;;;;;4.77;3.67;;;16.50;99.90;;;;;;5085034;24;20254;-93
2022/06/16 02:23:46;;;;;;;5.73;3.20;;;16.40;99.90;;;;;;4877977;29;20218;-96
2022/06/16 02:26:24;;;;;;;5.50;3.80;;;16.30;99.90;;;;;;4866964;29;20259;-95
2022/06/16 02:29:07;;;;;;;5.23;3.47;;;16.30;99.90;;;;;;4869309;29;20231;-95
2022/06/16 02:31:49;;;;;;;5.27;3.10;;;16.30;99.90;;;;;;4876866;29;20318;-94
2022/06/16 02:34:55;;;;;;;5.10;3.40;;;16.20;99.90;;;;;;4881500;29;20207;-94
2022/06/16 02:37:58;;;;;;;5.27;3.33;;;16.10;99.90;;;;;;4877040;29;20270;-95
2022/06/16 02:41:13;;;;;;;5.43;3.27;;;16.10;99.90;;;;;;4872998;29;20282;-94
2022/06/16 02:44:01;;;;;;;5.70;3.47;;;16.00;99.90;;;;;;4870921;29;20301;-94
2022/06/16 02:46:53;;;;;;;4.80;3.47;;;15.90;99.90;;;;;;4879618;29;20304;-94
2022/06/16 02:50:06;;;;;;;6.40;3.60;;;15.90;99.90;;;;;;4878850;29;20346;-94
2022/06/16 02:52:47;;;;;;;4.03;3.10;;;15.90;99.90;;;;;;4876561;29;20224;-95
2022/06/16 02:55:30;;;;;;;4.23;3.63;;;15.90;99.90;;;;;;4878466;29;20234;-93
2022/06/16 02:58:04;;;;;;;7.37;3.70;;;15.90;99.90;;;;;;4878084;29;20302;-94
2022/06/16 03:00:48;;;;;;;4.70;3.17;;;16.00;99.90;;;;;;4852292;29;20222;-94
2022/06/16 03:03:25;;;;;;;8.43;4.03;;;15.90;99.90;;;;;;4874725;29;20211;-94
2022/06/16 03:06:04;;;;;;;6.27;3.30;;;15.80;99.90;;;;;;4874318;29;20637;-93
2022/06/16 03:08:47;;;;;;;5.80;3.67;;;15.80;99.90;;;;;;4861854;29;20216;-94
2022/06/16 03:11:19;;;;;;;7.77;3.47;;;15.70;99.90;;;;;;4864139;29;20244;-95
2022/06/16 03:13:52;;;;;;;23.77;7.27;;;15.70;99.90;;;;;;4879270;29;20279;-94
2022/06/16 03:16:25;;;;;;;4.37;3.63;;;15.70;99.90;;;;;;4882461;29;20210;-93
2022/06/16 03:18:59;;;;;;;5.70;3.97;;;15.70;99.90;;;;;;4879938;29;20211;-94
2022/06/16 03:24:33;;;;;;;6.80;3.80;;;15.50;99.90;;;;;;4879043;29;20216;-94
2022/06/16 03:27:07;;;;;;;4.60;3.73;;;15.40;99.90;;;;;;4878815;29;20232;-94
2022/06/16 03:29:39;;;;;;;4.77;3.70;;;15.40;99.90;;;;;;4876318;29;20222;-94
2022/06/16 03:32:12;;;;;;;5.57;3.30;;;15.40;99.90;;;;;;4877130;29;20211;-95
2022/06/16 03:42:38;;;;;;;4.43;3.67;;;15.10;99.90;;;;;;4863929;29;20225;-94
2022/06/16 03:50:21;;;;;;;7.30;4.10;;;15.00;99.90;;;;;;4871773;29;20245;-93
2022/06/16 03:52:53;;;;;;;9.00;4.77;;;15.00;99.90;;;;;;4852945;29;20522;-94
2022/06/16 03:55:26;;;;;;;5.53;3.93;;;14.90;99.90;;;;;;4849224;29;20223;-94
2022/06/16 03:58:01;;;;;;;7.57;4.77;;;14.90;99.90;;;;;;4852462;29;20271;-93
2022/06/16 04:00:35;;;;;;;5.27;3.93;;;14.90;99.90;;;;;;4854524;29;20242;-94
2022/06/16 04:05:59;;;;;;;5.23;3.67;;;14.80;99.90;;;;;;4854779;29;20211;-94
2022/06/16 04:08:39;;;;;;;4.00;3.60;;;14.70;99.90;;;;;;4875506;29;20218;-94
2022/06/16 04:14:04;;;;;;;6.03;3.90;;;14.70;99.90;;;;;;4876882;29;20246;-94
2022/06/16 04:16:40;;;;;;;6.17;4.40;;;14.70;99.90;;;;;;4855196;29;20284;-94
2022/06/16 04:22:01;;;;;;;6.63;3.73;;;14.70;99.90;;;;;;4859910;29;20215;-94
2022/06/16 04:24:46;;;;;;;4.50;3.83;;;14.70;99.90;;;;;;4862816;29;20228;-93
2022/06/16 04:27:21;;;;;;;8.30;3.90;;;14.70;99.90;;;;;;4858922;29;20263;-95
2022/06/16 04:29:56;;;;;;;7.07;3.87;;;14.70;99.90;;;;;;4842908;29;20216;-94
2022/06/16 04:32:29;;;;;;;7.53;4.37;;;14.70;99.90;;;;;;4841975;29;20216;-94
2022/06/16 04:37:48;;;;;;;10.77;4.00;;;14.60;99.90;;;;;;4856297;29;20268;-96
2022/06/16 04:40:20;;;;;;;7.30;4.00;;;14.60;99.90;;;;;;4834545;29;20295;-95
2022/06/16 04:43:24;;;;;;;7.60;4.10;;;14.50;99.90;;;;;;4839278;29;20216;-96
2022/06/16 04:49:22;;;;;;;5.77;4.43;;;14.50;99.90;;;;;;5323538;24;20349;-96
2022/06/16 04:51:54;;;;;;;5.07;3.80;;;14.40;99.90;;;;;;4865905;29;20214;-93
2022/06/16 04:54:29;;;;;;;4.87;3.83;;;14.40;99.90;;;;;;4864018;29;20227;-95
2022/06/16 04:57:03;;;;;;;6.93;4.23;;;14.50;99.90;;;;;;4864858;29;20215;-93
2022/06/16 05:03:41;;;;;;;4.97;3.63;;;14.50;99.90;;;;;;4871263;29;20239;-95
2022/06/16 05:06:16;;;;;;;5.30;4.10;;;14.50;99.90;;;;;;4872338;29;20230;-96
2022/06/16 05:09:00;;;;;;;4.33;3.93;;;14.40;99.90;;;;;;4873102;29;20226;-95
2022/06/16 05:11:35;;;;;;;5.27;4.30;;;14.20;99.90;;;;;;4875679;29;20278;-96
2022/06/16 05:14:08;;;;;;;7.20;4.33;;;14.20;99.90;;;;;;4874360;29;20286;-94
2022/06/16 05:19:44;;;;;;;7.00;4.20;;;14.10;99.90;;;;;;4875212;29;20269;-95
2022/06/16 05:22:46;;;;;;;7.20;4.60;;;14.10;99.90;;;;;;4873931;29;20211;-95
2022/06/16 05:25:18;;;;;;;7.43;4.30;;;14.10;99.90;;;;;;4870272;29;20212;-96
2022/06/16 05:27:58;;;;;;;5.07;4.13;;;14.10;99.90;;;;;;4873421;29;20561;-96
2022/06/16 05:30:35;;;;;;;5.70;4.07;;;14.10;99.90;;;;;;4875459;29;20238;-96
2022/06/16 05:33:11;;;;;;;8.17;4.63;;;14.10;99.90;;;;;;4880435;29;20206;-95
2022/06/16 05:36:08;;;;;;;6.87;4.47;;;14.10;99.90;;;;;;4875791;29;20276;-96
2022/06/16 05:38:51;;;;;;;7.00;4.50;;;14.10;99.90;;;;;;4877932;29;20724;-96
2022/06/16 05:41:28;;;;;;;5.70;4.40;;;14.00;99.90;;;;;;4866753;29;20230;-96
2022/06/16 05:44:04;;;;;;;8.00;4.30;;;14.00;99.90;;;;;;4866754;29;20243;-94
2022/06/16 05:46:51;;;;;;;10.87;4.90;;;14.00;99.90;;;;;;4871033;29;20230;-96
2022/06/16 05:49:44;;;;;;;4.80;4.27;;;14.00;99.90;;;;;;4854454;29;20225;-95
2022/06/16 05:55:08;;;;;;;8.73;4.23;;;13.90;99.90;;;;;;4869369;29;20584;-96
2022/06/16 06:00:25;;;;;;;7.97;4.80;;;13.80;99.90;;;;;;4872740;29;20211;-95
2022/06/16 06:03:02;;;;;;;5.80;4.50;;;13.70;99.90;;;;;;4873037;29;20227;-96
2022/06/16 06:05:36;;;;;;;8.63;4.63;;;13.60;99.90;;;;;;4870147;29;20215;-96
2022/06/16 06:16:43;;;;;;;6.07;4.83;;;13.30;99.90;;;;;;4852359;29;20625;-96
2022/06/16 06:19:28;;;;;;;8.20;4.87;;;13.20;99.90;;;;;;4848459;29;20326;-96
2022/06/16 06:32:08;;;;;;;10.00;4.43;;;12.80;99.90;;;;;;4858830;29;20282;-96
2022/06/16 07:04:18;;;;;;;11.03;7.07;;;12.50;99.90;;;;;;4862408;29;20223;-96
2022/06/16 07:25:42;;;;;;;7.30;4.97;;;12.40;99.90;;;;;;5508780;23;20243;-95
2022/06/16 07:28:14;;;;;;;9.80;4.27;;;12.30;99.90;;;;;;5149269;24;20250;-96
2022/06/16 07:30:47;;;;;;;7.20;5.30;;;12.30;99.90;;;;;;4884421;29;20230;-96
2022/06/16 07:35:55;;;;;;;7.37;4.67;;;12.30;99.90;;;;;;5183624;23;20488;-96
2022/06/16 07:41:34;;;;;;;6.57;5.10;;;12.20;99.90;;;;;;5203656;23;20242;-96
2022/06/16 07:44:10;;;;;;;7.53;5.30;;;12.10;99.90;;;;;;4882563;29;20215;-95
2022/06/16 07:46:46;;;;;;;9.10;5.30;;;12.10;99.90;;;;;;4879963;29;20198;-96
2022/06/16 07:57:26;;;;;;;8.57;6.03;;;12.00;99.90;;;;;;5228654;23;20313;-96
2022/06/16 08:00:00;;;;;;;7.07;5.60;;;12.00;99.90;;;;;;4874098;29;20230;-96
2022/06/16 08:08:02;;;;;;;6.70;5.03;;;11.80;99.90;;;;;;5681993;24;20520;-96
2022/06/16 08:10:36;;;;;;;8.57;5.07;;;11.90;99.90;;;;;;4879867;29;20244;-96
2022/06/16 08:13:16;;;;;;;9.97;6.40;;;11.90;99.90;;;;;;4863328;29;20221;-96
2022/06/16 08:16:03;;;;;;;6.80;5.30;;;11.90;99.90;;;;;;4880350;29;20259;-96
2022/06/16 08:18:36;;;;;;;7.53;5.30;;;11.90;99.90;;;;;;4881036;29;20242;-96
2022/06/16 08:21:10;;;;;;;6.43;5.13;;;11.90;99.90;;;;;;4881620;29;20230;-96
2022/06/16 08:23:43;;;;;;;8.97;5.13;;;11.90;99.90;;;;;;4883456;29;20207;-94
2022/06/16 08:26:16;;;;;;;8.17;5.80;;;11.90;99.90;;;;;;4883747;29;20287;-96
2022/06/16 08:28:53;;;;;;;8.93;5.93;;;11.70;99.90;;;;;;4881939;29;20656;-96
2022/06/16 08:31:27;;;;;;;8.97;6.10;;;11.70;99.90;;;;;;4879448;29;20210;-96
2022/06/16 08:42:50;;;;;;;9.20;6.00;;;11.70;99.90;;;;;;4883408;29;20207;-96
2022/06/16 08:45:56;;;;;;;7.63;5.77;;;11.70;99.90;;;;;;4873827;29;20230;-96
2022/06/16 08:55:07;;;;;;;5.37;4.60;;;11.70;99.90;;;;;;4875458;29;20336;-96
2022/06/16 08:57:47;;;;;;;7.83;4.83;;;11.70;99.90;;;;;;4874683;29;20222;-96
2022/06/16 09:42:39;;;;;;;7.43;4.93;;;11.40;99.90;;;;;;4854420;29;20246;-96
2022/06/16 09:57:49;;;;;;;7.10;5.70;;;11.40;99.90;;;;;;4856161;29;20263;-96
2022/06/16 10:06:26;;;;;;;7.20;5.40;;;11.60;99.90;;;;;;4998136;23;20524;-96
2022/06/16 10:09:20;;;;;;;6.83;5.23;;;11.70;99.90;;;;;;4863779;29;20230;-96
2022/06/16 10:12:08;;;;;;;8.97;5.13;;;11.80;99.90;;;;;;4856530;29;20317;-96
2022/06/16 10:15:04;;;;;;;9.67;5.30;;;11.80;99.90;;;;;;4846540;29;20267;-96
2022/06/16 10:18:05;;;;;;;5.70;5.00;;;11.70;99.90;;;;;;4852300;29;20203;-96
2022/06/16 10:20:38;;;;;;;8.00;4.47;;;11.60;99.90;;;;;;4845896;29;20269;-96
2022/06/16 10:23:14;;;;;;;6.70;5.20;;;11.60;99.90;;;;;;4845888;29;20280;-96
2022/06/16 10:25:49;;;;;;;7.67;5.47;;;11.50;99.90;;;;;;4850859;29;20231;-96
2022/06/16 10:28:33;;;;;;;9.87;5.97;;;11.40;99.90;;;;;;4847293;29;20287;-96
2022/06/16 10:31:06;;;;;;;10.10;5.23;;;11.30;99.90;;;;;;4843108;29;20230;-95
2022/06/16 10:33:57;;;;;;;8.60;5.50;;;11.20;99.90;;;;;;4838660;29;20227;-96
2022/06/16 10:36:30;;;;;;;8.87;5.73;;;11.20;99.90;;;;;;4843415;29;20211;-96
2022/06/16 10:39:27;;;;;;;6.73;5.03;;;11.20;99.90;;;;;;4854166;29;20223;-96
2022/06/16 10:45:13;;;;;;;8.03;5.57;;;11.10;99.90;;;;;;4851936;29;20350;-96
2022/06/16 10:47:53;;;;;;;9.43;5.27;;;11.00;99.90;;;;;;4848982;29;20216;-96
2022/06/16 10:50:32;;;;;;;8.10;5.17;;;11.00;99.90;;;;;;4833485;29;20208;-96
2022/06/16 10:53:08;;;;;;;10.10;5.43;;;10.90;99.90;;;;;;4834298;29;20277;-95
2022/06/16 10:55:46;;;;;;;7.70;5.87;;;10.80;99.90;;;;;;4832221;29;20212;-95
2022/06/16 10:58:24;;;;;;;6.43;5.20;;;10.80;99.90;;;;;;4831068;29;20252;-95
2022/06/16 11:01:07;;;;;;;6.20;4.97;;;10.80;99.90;;;;;;4831425;29;20330;-95
2022/06/16 11:06:33;;;;;;;7.53;5.10;;;10.50;99.90;;;;;;4841825;29;20265;-96
2022/06/16 11:09:07;;;;;;;6.47;5.73;;;10.50;99.90;;;;;;4839603;29;20239;-96
2022/06/16 11:11:46;;;;;;;7.53;5.20;;;10.50;99.90;;;;;;4839393;29;20246;-96
2022/06/16 11:14:24;;;;;;;5.53;4.77;;;10.40;99.90;;;;;;4841844;29;20213;-96
2022/06/16 11:16:57;;;;;;;9.67;5.50;;;10.40;99.90;;;;;;4844520;29;20234;-95
2022/06/16 11:25:24;;;;;;;7.73;4.87;;;10.30;99.90;;;;;;4852386;29;20227;-96
2022/06/16 11:28:04;;;;;;;8.07;5.50;;;10.40;99.90;;;;;;4850901;29;20322;-96
2022/06/16 11:30:39;;;;;;;6.07;5.10;;;10.40;99.90;;;;;;4847651;29;20215;-95
2022/06/16 11:40:04;;;;;;;7.60;5.10;;;10.40;99.90;;;;;;4845338;29;20247;-96
2022/06/16 11:43:02;;;;;;;8.83;5.70;;;10.30;99.90;;;;;;4856877;29;20278;-96
2022/06/16 11:45:52;;;;;;;7.30;5.00;;;10.40;99.90;;;;;;4842367;29;20224;-96
2022/06/16 11:48:33;;;;;;;6.07;5.47;;;10.40;99.90;;;;;;4835500;29;20220;-96
2022/06/16 11:51:10;;;;;;;6.23;4.97;;;10.50;99.90;;;;;;4839355;29;20303;-96
2022/06/16 11:53:57;;;;;;;6.90;5.23;;;10.50;99.90;;;;;;4848955;29;20240;-96
2022/06/16 11:56:41;;;;;;;8.00;5.43;;;10.40;99.90;;;;;;4854838;29;20316;-96
2022/06/16 11:59:34;;;;;;;7.20;5.30;;;10.50;99.90;;;;;;4850067;29;20243;-96
2022/06/16 12:02:23;;;;;;;6.80;4.93;;;10.40;99.90;;;;;;4844644;29;20222;-96
2022/06/16 12:11:13;;;;;;;6.50;4.90;;;10.40;99.90;;;;;;4846561;29;20212;-96
2022/06/16 12:13:56;;;;;;;6.33;5.30;;;10.30;99.90;;;;;;4830567;29;20212;-96
2022/06/16 12:16:33;;;;;;;6.77;5.07;;;10.20;99.90;;;;;;4829904;29;20220;-96
2022/06/16 12:22:24;;;;;;;9.87;5.33;;;10.20;99.90;;;;;;4838522;29;20221;-96
2022/06/16 12:25:03;;;;;;;8.80;5.90;;;10.10;99.90;;;;;;4831968;29;20227;-96
2022/06/16 12:27:53;;;;;;;7.90;5.70;;;10.10;99.90;;;;;;4845780;29;20624;-96
2022/06/16 12:30:40;;;;;;;8.33;5.50;;;10.10;99.90;;;;;;4850657;29;20219;-96
2022/06/16 12:36:27;;;;;;;7.60;5.87;;;10.10;99.90;;;;;;4853987;29;20306;-96
2022/06/16 12:39:05;;;;;;;6.50;5.30;;;10.10;99.90;;;;;;4850277;29;20294;-96
2022/06/16 12:41:55;;;;;;;7.20;5.30;;;10.10;99.90;;;;;;4841960;29;20248;-96
2022/06/16 12:53:49;;;;;;;7.93;6.07;;;10.00;99.90;;;;;;4829190;29;20212;-96
2022/06/16 12:59:15;;;;;;;7.73;6.33;;;10.20;99.90;;;;;;4840960;29;20223;-96
2022/06/16 13:01:52;;;;;;;7.60;5.50;;;10.40;99.90;;;;;;4832700;29;20259;-96
2022/06/16 13:04:30;;;;;;;6.83;5.50;;;10.50;99.90;;;;;;4828101;29;20239;-96
2022/06/16 13:07:05;;;;;;;9.80;5.03;;;10.50;99.90;;;;;;4836650;29;20245;-95
2022/06/16 13:09:42;;;;;;;7.93;5.00;;;10.60;99.90;;;;;;4833811;29;20685;-96
2022/06/16 13:12:22;;;;;;;7.97;5.20;;;10.60;99.90;;;;;;4831742;29;20243;-96
2022/06/16 13:17:53;;;;;;;7.57;5.97;;;10.80;99.90;;;;;;4842799;29;20227;-95
2022/06/16 13:20:32;;;;;;;6.30;5.00;;;10.90;99.90;;;;;;4848896;29;20976;-96
2022/06/16 13:29:26;;;;;;;5.80;4.50;;;11.20;99.90;;;;;;4828783;29;20228;-96
2022/06/16 13:32:25;;;;;;;6.70;4.63;;;11.40;99.90;;;;;;4837265;29;20215;-96
2022/06/16 13:35:05;;;;;;;5.87;4.90;;;11.40;99.90;;;;;;4834975;29;20217;-96
2022/06/16 13:37:48;;;;;;;6.93;5.10;;;11.50;99.90;;;;;;4839094;29;20242;-96
2022/06/16 13:40:41;;;;;;;7.50;5.17;;;11.60;99.90;;;;;;4833578;29;20220;-95
2022/06/16 13:43:28;;;;;;;9.93;5.60;;;11.70;99.90;;;;;;4838285;29;20238;-95
2022/06/16 13:46:04;;;;;;;8.53;5.53;;;11.70;99.90;;;;;;4836171;29;20299;-96
2022/06/16 13:48:50;;;;;;;8.37;5.37;;;11.70;99.90;;;;;;4834705;29;20257;-96
2022/06/16 13:51:46;;;;;;;5.53;4.90;;;11.80;99.90;;;;;;4843061;29;20218;-95
2022/06/16 13:54:36;;;;;;;6.23;5.23;;;11.90;99.90;;;;;;5024217;23;20227;-96
2022/06/16 13:57:23;;;;;;;5.90;4.47;;;12.00;99.90;;;;;;4825491;29;20205;-96
2022/06/16 14:00:16;;;;;;;6.83;4.97;;;12.10;99.90;;;;;;4841515;29;20540;-96
2022/06/16 14:03:05;;;;;;;7.03;5.23;;;12.20;99.90;;;;;;4858661;29;20199;-96
2022/06/16 14:05:38;;;;;;;8.20;5.43;;;12.10;99.90;;;;;;4851231;29;20212;-95
2022/06/16 14:08:17;;;;;;;6.67;4.50;;;12.30;99.90;;;;;;4832521;29;20261;-96
2022/06/16 14:11:18;;;;;;;5.70;4.77;;;12.50;99.90;;;;;;4825613;29;20662;-96
2022/06/16 14:14:07;;;;;;;6.13;5.23;;;12.60;99.90;;;;;;4833276;29;20276;-96
2022/06/16 14:19:39;;;;;;;10.33;5.63;;;12.60;99.90;;;;;;4818571;29;20312;-96
2022/06/16 14:22:15;;;;;;;7.77;6.07;;;12.80;99.90;;;;;;4818051;29;20292;-96
2022/06/16 14:24:57;;;;;;;10.90;6.03;;;12.80;99.90;;;;;;4834295;29;20267;-96
2022/06/16 14:27:37;;;;;;;11.30;6.63;;;12.80;99.90;;;;;;4836328;29;20271;-96
2022/06/16 14:33:04;;;;;;;11.10;7.00;;;13.10;99.90;;;;;;4831454;29;20295;-95
2022/06/16 14:35:42;;;;;;;9.93;7.10;;;13.30;99.90;;;;;;4822404;29;20256;-96
2022/06/16 14:38:47;;;;;;;6.77;6.07;;;13.60;99.90;;;;;;4829828;29;20260;-96
2022/06/16 14:44:57;;;;;;;7.40;5.93;;;13.90;99.90;;;;;;4837825;29;20220;-95
2022/06/16 14:47:36;;;;;;;9.07;6.33;;;14.40;99.90;;;;;;4820393;29;20285;-96
2022/06/16 14:50:31;;;;;;;6.90;5.87;;;15.30;99.90;;;;;;4814497;29;20221;-96
2022/06/16 14:53:10;;;;;;;9.20;6.17;;;15.70;99.90;;;;;;4815207;29;20209;-96
2022/06/16 14:56:00;;;;;;;10.00;5.93;;;15.40;99.90;;;;;;4813609;29;20228;-96
2022/06/16 14:58:51;;;;;;;8.67;6.13;;;15.40;99.90;;;;;;4837231;29;20219;-96
2022/06/16 15:01:42;;;;;;;7.63;6.43;;;16.10;99.90;;;;;;4824290;29;20249;-96
2022/06/16 15:04:29;;;;;;;7.17;5.90;;;16.90;99.90;;;;;;4834999;29;20220;-96
2022/06/16 15:15:59;;;;;;;6.23;5.43;;;16.50;99.90;;;;;;4836078;29;20268;-96
2022/06/16 15:18:39;;;;;;;6.00;5.27;;;16.20;99.90;;;;;;4829956;29;20201;-96
2022/06/16 15:21:14;;;;;;;7.70;5.37;;;15.80;99.90;;;;;;4836999;29;20244;-96
2022/06/16 15:27:07;;;;;;;6.00;5.27;;;16.30;99.90;;;;;;4839579;29;20230;-95
2022/06/16 15:29:50;;;;;;;8.50;4.97;;;16.60;99.90;;;;;;4837709;29;20273;-96
2022/06/16 15:38:42;;;;;;;8.23;6.00;;;16.40;99.90;;;;;;4817001;29;20244;-96
2022/06/16 15:41:33;;;;;;;10.83;6.30;;;16.20;99.90;;;;;;4820561;29;20235;-96
2022/06/16 15:44:09;;;;;;;7.50;5.53;;;16.10;99.90;;;;;;4819882;29;20274;-96
2022/06/16 15:46:47;;;;;;;6.60;5.40;;;16.20;99.90;;;;;;4821216;29;20217;-96
2022/06/16 15:49:23;;;;;;;5.40;4.87;;;16.30;99.90;;;;;;4819481;29;20224;-96
2022/06/16 15:52:06;;;;;;;6.90;4.60;;;16.20;99.90;;;;;;4816510;29;20228;-96
2022/06/16 15:54:46;;;;;;;5.03;4.33;;;15.90;99.90;;;;;;4836606;29;20225;-96
2022/06/16 15:57:21;;;;;;;5.90;4.43;;;15.60;99.90;;;;;;4840612;29;20299;-96
2022/06/16 15:59:57;;;;;;;5.57;4.07;;;15.30;99.90;;;;;;4838453;29;20235;-96
2022/06/16 16:02:33;;;;;;;4.50;3.80;;;15.30;99.90;;;;;;4823982;29;20232;-96
2022/06/16 16:05:21;;;;;;;5.80;3.53;;;15.50;99.90;;;;;;4823975;29;20280;-96
2022/06/16 16:08:02;;;;;;;4.37;3.80;;;15.70;99.90;;;;;;4827615;29;20574;-96
2022/06/16 16:10:34;;;;;;;5.70;3.73;;;15.50;99.90;;;;;;4814219;29;20221;-96
2022/06/16 16:13:08;;;;;;;3.73;2.57;;;15.70;99.90;;;;;;4816544;29;20251;-95
2022/06/16 16:15:51;;;;;;;3.40;2.77;;;15.90;99.90;;;;;;4828333;29;20741;-95
2022/06/16 16:18:30;;;;;;;4.87;2.93;;;16.10;99.90;;;;;;4834356;29;20238;-95
2022/06/16 16:21:06;;;;;;;2.93;2.63;;;16.20;99.90;;;;;;4823770;29;20248;-95
2022/06/16 16:26:42;;;;;;;4.33;3.40;;;16.40;99.90;;;;;;4825049;29;20210;-96
2022/06/16 16:29:24;;;;;;;3.17;2.87;;;16.50;99.90;;;;;;4830329;29;20208;-95
2022/06/16 16:35:09;;;;;;;3.73;3.03;;;16.10;99.90;;;;;;4820440;29;20238;-95
2022/06/16 16:37:44;;;;;;;3.77;3.00;;;16.10;99.90;;;;;;4822833;29;20303;-96
2022/06/16 16:43:45;;;;;;;3.13;2.60;;;15.90;99.90;;;;;;4823307;29;20241;-96
2022/06/16 16:46:22;;;;;;;2.70;2.37;;;15.80;99.90;;;;;;4831135;29;20238;-95
2022/06/16 17:15:45;;;;;;;6.17;3.37;;;16.40;99.90;;;;;;4854277;29;20303;-96
2022/06/16 17:21:34;;;;;;;6.73;3.70;;;16.60;99.90;;;;;;4862050;29;20211;-96
2022/06/16 17:24:07;;;;;;;4.07;3.50;;;16.50;99.90;;;;;;4856640;29;20253;-96
2022/06/16 17:26:39;;;;;;;5.17;3.60;;;16.70;99.90;;;;;;4848771;29;20211;-96
2022/06/16 17:29:11;;;;;;;4.80;3.87;;;16.70;99.90;;;;;;4853651;29;20204;-96
2022/06/16 17:34:37;;;;;;;3.33;3.03;;;16.50;99.90;;;;;;4839105;29;20228;-96
2022/06/16 17:37:20;;;;;;;5.30;3.60;;;16.30;99.90;;;;;;4836982;29;20319;-96
2022/06/16 17:39:53;;;;;;;7.93;3.33;;;16.30;99.90;;;;;;4837975;29;20220;-96
2022/06/16 17:42:30;;;;;;;4.40;3.17;;;16.40;99.90;;;;;;4832727;29;20227;-96
2022/06/16 17:48:39;;;;;;;3.03;2.67;;;16.30;99.90;;;;;;4854649;29;20228;-96
2022/06/16 17:59:44;;;;;;;3.97;2.93;;;16.80;99.90;;;;;;4878081;29;20221;-96
2022/06/16 18:02:25;;;;;;;3.23;2.93;;;17.10;99.90;;;;;;4868388;29;20231;-96
2022/06/16 18:04:59;;;;;;;4.80;2.70;;;17.20;99.90;;;;;;4871967;29;20274;-95
2022/06/16 18:07:40;;;;;;;4.93;3.13;;;17.40;99.90;;;;;;4880898;29;20270;-96
2022/06/16 18:10:31;;;;;;;5.53;2.97;;;17.70;99.90;;;;;;4880409;29;20246;-96
2022/06/16 18:13:04;;;;;;;3.20;2.93;;;17.70;99.90;;;;;;4878791;29;20222;-94
2022/06/16 18:15:37;;;;;;;4.50;3.03;;;17.40;99.90;;;;;;4880043;29;20275;-96
2022/06/16 18:18:15;;;;;;;5.13;3.60;;;17.20;99.90;;;;;;4869211;29;20211;-96
2022/06/16 18:20:55;;;;;;;4.27;3.10;;;16.80;99.90;;;;;;4882183;29;20303;-96
2022/06/16 18:23:30;;;;;;;4.23;3.60;;;16.60;99.90;;;;;;4879263;29;20264;-96
2022/06/16 18:28:57;;;;;;;4.27;3.07;;;17.10;99.90;;;;;;4879638;29;20209;-96
2022/06/16 18:37:23;;;;;;;4.70;3.10;;;17.80;99.90;;;;;;4878140;29;20215;-96
2022/06/16 18:43:08;;;;;;;4.13;3.10;;;18.00;99.90;;;;;;4863352;29;20772;-96
2022/06/16 18:45:43;;;;;;;4.70;3.63;;;17.90;99.90;;;;;;4918235;24;20234;-96
2022/06/16 18:48:21;;;;;;;3.77;3.40;;;17.90;99.90;;;;;;4866710;29;20233;-96
2022/06/16 18:50:53;;;;;;;5.93;4.07;;;17.90;99.90;;;;;;4869458;29;20255;-96
2022/06/16 18:53:35;;;;;;;4.53;3.70;;;18.00;99.90;;;;;;4869978;29;20233;-96
2022/06/16 18:56:10;;;;;;;4.30;3.90;;;18.20;99.90;;;;;;4869287;29;20218;-94
2022/06/16 18:58:59;;;;;;;4.07;3.40;;;18.00;99.90;;;;;;4851680;29;20283;-96
2022/06/16 19:01:33;;;;;;;5.10;3.50;;;17.90;99.90;;;;;;4861697;29;20215;-96
2022/06/16 19:04:06;;;;;;;5.83;3.40;;;18.00;99.90;;;;;;4852023;29;20308;-96
2022/06/16 19:06:39;;;;;;;4.73;3.20;;;17.90;99.90;;;;;;4860493;29;20226;-96
2022/06/16 19:09:15;;;;;;;3.93;3.03;;;17.70;99.90;;;;;;4863672;29;20215;-96
2022/06/16 19:14:53;;;;;;;4.33;3.33;;;17.70;99.90;;;;;;4872246;29;20227;-96
2022/06/16 19:17:27;;;;;;;44.87;25.53;;;18.10;99.90;;;;;;4878892;29;20207;-96
2022/06/16 19:23:07;;;;;;;3.87;2.47;;;18.30;99.90;;;;;;4883535;29;20234;-96
2022/06/16 19:25:43;;;;;;;4.27;2.83;;;18.60;99.90;;;;;;4882687;29;20211;-96
2022/06/16 19:28:14;;;;;;;3.57;2.77;;;18.70;99.90;;;;;;4876558;29;20214;-96
2022/06/16 19:30:48;;;;;;;5.60;4.20;;;18.90;99.90;;;;;;4859062;29;20284;-96
2022/06/16 19:33:21;;;;;;;3.10;2.80;;;18.80;99.90;;;;;;4858557;29;20212;-96
2022/06/16 19:35:55;;;;;;;4.67;3.33;;;18.90;99.90;;;;;;4869589;29;20226;-96
2022/06/16 19:38:42;;;;;;;5.33;3.77;;;19.10;99.90;;;;;;4868745;29;20218;-96
2022/06/16 19:41:20;;;;;;;5.30;3.90;;;19.10;99.90;;;;;;4879747;29;20225;-96
2022/06/16 19:52:48;;;;;;;3.67;2.90;;;19.10;99.90;;;;;;4884342;29;20205;-96
2022/06/16 19:58:21;;;;;;;3.90;3.03;;;19.40;99.90;;;;;;5261628;23;20241;-96